METAR Data
IDs: Format: Raw Decoded Include TAF

Data at: 1744 UTC 16 Oct 2021

KPSX 161727Z AUTO 03014G23KT 10SM FEW002 22/07 A3027 RMK AO2 T02220067
KPSX 161653Z AUTO 02017G21KT 10SM CLR 23/08 A3027 RMK AO2 SLP249 T02280083
KPSX 161553Z AUTO 03020G26KT 10SM CLR 21/08 A3027 RMK AO2 PK WND 03026/1532 SLP249 T02110083
KPSX 161453Z AUTO 02020KT 10SM CLR 19/09 A3027 RMK AO2 PK WND 02027/1405 SLP248 T01940094 53018
KPSX 161353Z AUTO 01019G23KT 10SM CLR 18/10 A3025 RMK AO2 SLP242 T01830100
KPSX 161253Z AUTO 01011KT 10SM CLR 16/11 A3023 RMK AO2 SLP236 T01610106
KPSX 161153Z AUTO 01012KT 10SM OVC065 17/11 A3021 RMK AO2 SLP230 T01720106 10217 20172 53030
KPSX 161053Z AUTO 36017G22KT 10SM OVC060 18/11 A3017 RMK AO2 SLP217 T01780111
KPSX 160953Z AUTO 01014KT 10SM BKN065 18/12 A3014 RMK AO2 PK WND 01026/0859 SLP207 T01830117
KPSX 160853Z AUTO 01018G24KT 10SM BKN060 19/12 A3012 RMK AO2 PK WND 36026/0807 SLP200 T01940122 51014
KPSX 160753Z AUTO 36018KT 10SM FEW050 20/14 A3011 RMK AO2 PK WND 01029/0726 SLP194 T02000144
KPSX 160653Z AUTO 36016KT 10SM BKN050 21/16 A3011 RMK AO2 SLP195 T02110156
KPSX 160553Z AUTO 36018G25KT 10SM CLR 22/17 A3008 RMK AO2 SLP186 T02170172 10267 20217 403110217 50015
KPSX 160453Z AUTO 36016G24KT 10SM FEW044 23/17 A3009 RMK AO2 PK WND 35026/0433 SLP187 T02280172
KPSX 160353Z AUTO 35015G20KT 10SM SCT120 24/19 A3008 RMK AO2 SLP184 T02390194
KPSX 160253Z AUTO 35013KT 10SM CLR 24/20 A3004 RMK AO2 SLP172 T02440200 53035
KPSX 160153Z AUTO 36010KT 10SM FEW018 BKN033 OVC042 26/23 A3000 RMK AO2 PK WND 30031/0137 SLP157 T02610233
KPSX 160053Z AUTO 00000KT 10SM CLR 26/23 A2995 RMK AO2 SLP140 T02610233
KPSX 152353Z AUTO 00000KT 10SM CLR 27/23 A2994 RMK AO2 SLP137 60000 T02670233 10311 20261 53011
KPSX 152253Z AUTO 21005KT 10SM CLR 28/22 A2992 RMK AO2 RAE2155 SLP130 P0000 T02780222
KPSX 152153Z AUTO 22004KT 10SM -RA OVC110 27/21 A2991 RMK AO2 LTG DSNT NE AND SW RAB25 SLP126 P0000 T02670211
KPSX 152118Z AUTO VRB05KT 10SM FEW019 SCT028 BKN050 28/21 A2992 RMK AO2 T02780206
KPSX 152053Z AUTO 20009KT 10SM VCTS CLR 31/24 A2990 RMK AO2 SLP126 T03060244 56015
KPSX 151953Z AUTO 19008KT 10SM CLR 31/24 A2991 RMK AO2 SLP126 T03110244
KPSX 151853Z AUTO 20008KT 10SM CLR 31/24 A2993 RMK AO2 SLP133 T03060244
KPSX 151753Z AUTO 19008KT 10SM CLR 30/24 A2995 RMK AO2 SLP141 T03000244 10300 20261 50003
KPSX 151653Z AUTO 20007KT 10SM FEW060 29/25 A2996 RMK AO2 SLP144 T02940250
KPSX 151553Z AUTO 20008KT 10SM BKN060 29/25 A2995 RMK AO2 SLP143 T02890250
KPSX 151453Z AUTO 20007KT 10SM CLR 28/25 A2994 RMK AO2 SLP137 T02830250 53019
KPSX 151353Z AUTO 18005KT 9SM CLR 28/26 A2991 RMK AO2 SLP129 T02780261 $
KPSX 151253Z AUTO 16006KT 6SM BR CLR 26/26 A2989 RMK AO2 SLP122 T02610256 $
KPSX 151153Z AUTO 14005KT 8SM OVC047 26/26 A2988 RMK AO2 SLP118 70326 T02610256 10261 20244 53008 $
KPSX 151053Z AUTO 14004KT 6SM BR OVC048 26/26 A2987 RMK AO2 SLP114 T02610256 $
KPSX 150953Z AUTO 14004KT 6SM BR FEW039 OVC047 26/25 A2986 RMK AO2 SLP112 T02610250
KPSX 150853Z AUTO 11004KT 5SM BR BKN048 26/24 A2986 RMK AO2 SLP111 T02560244 50000
KPSX 150753Z AUTO 11003KT 6SM BR OVC044 26/25 A2986 RMK AO2 SLP112 T02560250
KPSX 150653Z AUTO 09004KT 5SM BR BKN043 25/24 A2986 RMK AO2 SLP111 T02500244
KPSX 150553Z AUTO 00000KT 6SM BR OVC041 25/24 A2986 RMK AO2 SLP110 T02500244 10278 20239 402890228 50005